Time;durP1;ratioP1;P1;durP2;ratioP2;P2;SDS_P1;SDS_P2;PMS_P1;PMS_P2;Temp;Humidity;BMP_temperature;BMP_pressure;BME280_temperature;BME280_humidity;BME280_pressure;Samples;Min_cycle;Max_cycle;Signal;HPM_P1;HPM_P2
2024/03/30 00:00:00;;;;;;;13.63;12.33;;;;;;;;;;476968;28;1068;-71
2024/03/30 00:00:16;;;;;;;13.80;12.40;;;;;;;;;;478651;28;1060;-69
2024/03/30 00:00:31;;;;;;;13.80;12.40;;;;;;;;;;477262;28;1353;-69
2024/03/30 00:00:47;;;;;;;13.80;12.50;;;;;;;;;;477339;28;1079;-69
2024/03/30 00:01:02;;;;;;;14.43;13.02;;;;;;;;;;479711;28;1079;-69
2024/03/30 00:01:18;;;;;;;14.97;13.47;;;;;;;;;;478860;28;1133;-69
2024/03/30 00:01:33;;;;;;;14.70;13.20;;;;;;;;;;480078;28;1156;-69
2024/03/30 00:01:48;;;;;;;15.07;13.57;;;;;;;;;;479939;28;1385;-69
2024/03/30 00:02:03;;;;;;;15.30;13.70;;;;;;;;;;480519;28;1151;-69
2024/03/30 00:02:19;;;;;;;14.65;13.15;;;;;;;;;;481808;28;929;-69
2024/03/30 00:02:34;;;;;;;14.70;13.20;;;;;;;;;;482469;28;1360;-69
2024/03/30 00:02:49;;;;;;;15.10;13.50;;;;;;;;;;480654;28;965;-69
2024/03/30 00:03:05;;;;;;;14.85;13.35;;;;;;;;;;479769;28;1386;-70
2024/03/30 00:03:21;;;;;;;14.60;13.10;;;;;;;;;;477030;28;1202;-69
2024/03/30 00:03:36;;;;;;;14.90;13.40;;;;;;;;;;474283;28;1405;-69
2024/03/30 00:03:54;;;;;;;15.17;13.67;;;;;;;;;;475290;28;846;-69
2024/03/30 00:04:10;;;;;;;15.20;13.70;;;;;;;;;;476705;28;990;-70
2024/03/30 00:04:28;;;;;;;14.97;13.37;;;;;;;;;;475661;28;1091;-69
2024/03/30 00:04:43;;;;;;;14.50;12.90;;;;;;;;;;476076;28;1070;-69
2024/03/30 00:04:59;;;;;;;14.38;12.95;;;;;;;;;;474943;28;1187;-69
2024/03/30 00:05:14;;;;;;;15.83;13.30;;;;;;;;;;475070;28;1230;-69
2024/03/30 00:05:29;;;;;;;16.20;13.67;;;;;;;;;;474049;28;1055;-69
2024/03/30 00:05:45;;;;;;;15.25;13.70;;;;;;;;;;473485;28;873;-69
2024/03/30 00:06:02;;;;;;;14.90;13.38;;;;;;;;;;473305;28;1237;-69
2024/03/30 00:06:17;;;;;;;15.27;13.68;;;;;;;;;;474553;28;1975;-69
2024/03/30 00:06:33;;;;;;;15.57;13.85;;;;;;;;;;472470;28;1173;-69
2024/03/30 00:06:48;;;;;;;15.27;13.67;;;;;;;;;;473613;28;1152;-69
2024/03/30 00:07:03;;;;;;;15.20;13.60;;;;;;;;;;474559;28;1172;-69
2024/03/30 00:07:19;;;;;;;15.17;13.53;;;;;;;;;;476217;28;1174;-70
2024/03/30 00:07:40;;;;;;;15.20;13.60;;;;;;;;;;477819;28;1239;-69
2024/03/30 00:07:56;;;;;;;15.13;13.63;;;;;;;;;;476242;28;1280;-69
2024/03/30 00:08:13;;;;;;;15.10;13.60;;;;;;;;;;476928;28;1141;-70
2024/03/30 00:08:29;;;;;;;14.75;13.35;;;;;;;;;;475074;28;1315;-69
2024/03/30 00:08:44;;;;;;;14.73;13.32;;;;;;;;;;474896;28;1456;-69
2024/03/30 00:09:00;;;;;;;15.30;13.70;;;;;;;;;;473772;28;1174;-69
2024/03/30 00:09:15;;;;;;;14.48;12.95;;;;;;;;;;475140;28;943;-69
2024/03/30 00:09:31;;;;;;;13.68;12.27;;;;;;;;;;475105;28;972;-69
2024/03/30 00:09:47;;;;;;;14.57;13.03;;;;;;;;;;476958;28;873;-69
2024/03/30 00:10:03;;;;;;;15.38;13.80;;;;;;;;;;477802;28;1483;-69
2024/03/30 00:10:19;;;;;;;15.23;13.63;;;;;;;;;;476910;28;1022;-69
2024/03/30 00:10:38;;;;;;;14.70;13.20;;;;;;;;;;475556;28;1299;-69
2024/03/30 00:11:02;;;;;;;14.27;12.88;;;;;;;;;;476731;28;1260;-69
2024/03/30 00:11:17;;;;;;;15.25;13.65;;;;;;;;;;476579;28;872;-69
2024/03/30 00:11:33;;;;;;;15.27;13.67;;;;;;;;;;474975;28;1206;-70
2024/03/30 00:11:48;;;;;;;14.63;13.13;;;;;;;;;;472583;28;1486;-69
2024/03/30 00:12:04;;;;;;;14.75;13.15;;;;;;;;;;473091;28;913;-70
2024/03/30 00:12:19;;;;;;;14.53;13.03;;;;;;;;;;472650;28;1210;-69
2024/03/30 00:12:35;;;;;;;14.23;12.77;;;;;;;;;;473088;28;940;-70
2024/03/30 00:12:52;;;;;;;14.37;12.87;;;;;;;;;;474561;28;1241;-70
2024/03/30 00:13:09;;;;;;;14.93;13.43;;;;;;;;;;472357;28;1582;-69
2024/03/30 00:13:24;;;;;;;15.15;13.55;;;;;;;;;;473888;28;1256;-69
2024/03/30 00:13:40;;;;;;;15.13;13.52;;;;;;;;;;473243;28;1179;-69
2024/03/30 00:13:55;;;;;;;15.07;13.53;;;;;;;;;;474423;28;854;-70
2024/03/30 00:14:10;;;;;;;15.17;13.67;;;;;;;;;;474613;28;909;-69
2024/03/30 00:14:26;;;;;;;14.85;13.35;;;;;;;;;;475180;28;1290;-69
2024/03/30 00:14:41;;;;;;;14.70;13.20;;;;;;;;;;469565;28;2399;-69
2024/03/30 00:14:57;;;;;;;15.20;13.60;;;;;;;;;;469525;28;1169;-69
2024/03/30 00:15:12;;;;;;;15.20;13.60;;;;;;;;;;470149;28;1467;-71
2024/03/30 00:15:28;;;;;;;15.17;13.57;;;;;;;;;;471515;28;1094;-69
2024/03/30 00:15:43;;;;;;;15.18;13.40;;;;;;;;;;470525;28;1187;-70
2024/03/30 00:16:09;;;;;;;15.17;13.40;;;;;;;;;;471771;28;1153;-70
2024/03/30 00:16:24;;;;;;;16.33;13.32;;;;;;;;;;472062;28;1037;-69
2024/03/30 00:16:39;;;;;;;15.53;13.37;;;;;;;;;;472828;28;1351;-71
2024/03/30 00:16:54;;;;;;;14.68;13.18;;;;;;;;;;473260;28;1016;-69
2024/03/30 00:17:10;;;;;;;14.73;13.27;;;;;;;;;;472368;28;922;-69
2024/03/30 00:17:25;;;;;;;14.97;13.47;;;;;;;;;;472988;28;1197;-70
2024/03/30 00:17:40;;;;;;;15.07;13.57;;;;;;;;;;472937;28;1211;-69
2024/03/30 00:17:56;;;;;;;14.32;12.93;;;;;;;;;;474308;28;1163;-69
2024/03/30 00:18:11;;;;;;;13.27;11.97;;;;;;;;;;475488;28;1200;-69
2024/03/30 00:18:26;;;;;;;13.50;12.20;;;;;;;;;;476949;28;1282;-69
2024/03/30 00:18:43;;;;;;;13.48;12.18;;;;;;;;;;476504;28;1103;-69
2024/03/30 00:18:59;;;;;;;13.65;12.25;;;;;;;;;;474666;28;1076;-69
2024/03/30 00:19:15;;;;;;;14.38;12.95;;;;;;;;;;474795;28;1491;-69
2024/03/30 00:19:38;;;;;;;14.47;13.07;;;;;;;;;;474439;28;943;-70
2024/03/30 00:19:53;;;;;;;15.55;13.95;;;;;;;;;;473218;28;949;-69
2024/03/30 00:20:09;;;;;;;15.80;14.13;;;;;;;;;;473700;28;997;-69
2024/03/30 00:20:25;;;;;;;15.77;14.17;;;;;;;;;;473136;28;1101;-71
2024/03/30 00:20:40;;;;;;;15.52;13.93;;;;;;;;;;474036;28;1085;-69
2024/03/30 00:20:55;;;;;;;15.07;13.50;;;;;;;;;;474496;28;1147;-69
2024/03/30 00:21:15;;;;;;;15.13;13.27;;;;;;;;;;474856;28;1081;-71
2024/03/30 00:21:30;;;;;;;13.98;12.55;;;;;;;;;;475166;28;991;-70
2024/03/30 00:21:45;;;;;;;12.67;11.47;;;;;;;;;;473473;28;1217;-69
2024/03/30 00:22:00;;;;;;;12.40;11.20;;;;;;;;;;473964;28;1058;-69
2024/03/30 00:22:16;;;;;;;12.40;11.20;;;;;;;;;;474647;28;1211;-70
2024/03/30 00:22:31;;;;;;;12.60;11.40;;;;;;;;;;473094;28;1369;-69
2024/03/30 00:22:46;;;;;;;12.97;11.77;;;;;;;;;;473336;28;1160;-69
2024/03/30 00:23:02;;;;;;;12.95;11.65;;;;;;;;;;474303;28;1074;-71
2024/03/30 00:23:17;;;;;;;12.83;11.53;;;;;;;;;;473722;28;1275;-69
2024/03/30 00:23:33;;;;;;;13.93;12.43;;;;;;;;;;473047;28;874;-70
2024/03/30 00:23:48;;;;;;;14.35;12.85;;;;;;;;;;474277;28;1041;-69
2024/03/30 00:24:04;;;;;;;14.20;12.80;;;;;;;;;;474616;28;933;-69
2024/03/30 00:24:19;;;;;;;14.73;13.23;;;;;;;;;;474468;28;1191;-69
2024/03/30 00:24:34;;;;;;;14.70;13.20;;;;;;;;;;473784;28;1257;-69
2024/03/30 00:24:50;;;;;;;13.65;12.30;;;;;;;;;;476521;28;1200;-69
2024/03/30 00:25:05;;;;;;;12.63;11.33;;;;;;;;;;477629;28;901;-69
2024/03/30 00:25:23;;;;;;;12.30;11.10;;;;;;;;;;479450;28;1092;-69
2024/03/30 00:25:39;;;;;;;13.65;12.30;;;;;;;;;;479031;28;1036;-70
2024/03/30 00:25:55;;;;;;;14.73;13.23;;;;;;;;;;479528;28;940;-69
2024/03/30 00:26:10;;;;;;;14.45;13.05;;;;;;;;;;479292;28;2036;-70
2024/03/30 00:26:26;;;;;;;14.30;12.90;;;;;;;;;;478615;28;1147;-69
2024/03/30 00:26:41;;;;;;;14.03;12.63;;;;;;;;;;476560;28;1234;-69
2024/03/30 00:26:56;;;;;;;14.00;12.60;;;;;;;;;;477084;28;913;-69
2024/03/30 00:27:12;;;;;;;14.13;12.65;;;;;;;;;;474586;28;1212;-69
2024/03/30 00:27:27;;;;;;;13.70;12.30;;;;;;;;;;471102;28;966;-70
2024/03/30 00:27:43;;;;;;;13.67;12.37;;;;;;;;;;471188;28;1205;-69
2024/03/30 00:27:59;;;;;;;14.07;12.65;;;;;;;;;;470210;28;1086;-69
2024/03/30 00:28:14;;;;;;;14.40;12.90;;;;;;;;;;472364;28;886;-70
2024/03/30 00:28:30;;;;;;;14.23;12.77;;;;;;;;;;471807;28;1133;-70
2024/03/30 00:28:45;;;;;;;13.60;12.20;;;;;;;;;;472676;28;1270;-69
2024/03/30 00:29:01;;;;;;;13.60;12.20;;;;;;;;;;473419;28;1255;-69
2024/03/30 00:29:16;;;;;;;13.53;12.13;;;;;;;;;;472307;28;1191;-70
2024/03/30 00:29:34;;;;;;;13.57;12.20;;;;;;;;;;473981;28;1124;-69
2024/03/30 00:29:49;;;;;;;13.07;11.77;;;;;;;;;;471136;28;1328;-69
2024/03/30 00:30:05;;;;;;;12.85;11.55;;;;;;;;;;468741;28;1182;-70
2024/03/30 00:30:21;;;;;;;13.13;11.82;;;;;;;;;;469590;28;1397;-69
2024/03/30 00:30:39;;;;;;;13.33;11.93;;;;;;;;;;469000;28;1151;-70
2024/03/30 00:30:54;;;;;;;14.02;12.15;;;;;;;;;;469057;28;1428;-69
2024/03/30 00:31:10;;;;;;;14.15;12.65;;;;;;;;;;468359;28;1272;-70
2024/03/30 00:31:27;;;;;;;13.77;12.37;;;;;;;;;;470908;28;1200;-70
2024/03/30 00:31:43;;;;;;;13.55;12.15;;;;;;;;;;471107;28;1244;-69
2024/03/30 00:31:58;;;;;;;13.67;12.27;;;;;;;;;;472278;28;1190;-69
2024/03/30 00:32:13;;;;;;;13.75;12.35;;;;;;;;;;473274;28;1101;-69
2024/03/30 00:32:29;;;;;;;14.17;12.77;;;;;;;;;;473086;28;1086;-69
2024/03/30 00:32:47;;;;;;;13.90;12.50;;;;;;;;;;471937;28;1199;-70
2024/03/30 00:33:03;;;;;;;13.85;12.40;;;;;;;;;;469417;28;989;-69
2024/03/30 00:33:18;;;;;;;14.05;12.55;;;;;;;;;;471318;28;938;-70
2024/03/30 00:33:34;;;;;;;13.70;12.30;;;;;;;;;;470622;28;1428;-70
2024/03/30 00:33:49;;;;;;;13.67;12.37;;;;;;;;;;470528;28;1178;-69
2024/03/30 00:34:04;;;;;;;13.73;12.43;;;;;;;;;;471907;28;1074;-70
2024/03/30 00:34:20;;;;;;;12.82;11.52;;;;;;;;;;472237;28;1236;-70
2024/03/30 00:34:35;;;;;;;13.20;11.87;;;;;;;;;;471146;28;1503;-69
2024/03/30 00:34:50;;;;;;;13.73;12.33;;;;;;;;;;473609;28;970;-70
2024/03/30 00:35:06;;;;;;;13.43;12.02;;;;;;;;;;472773;28;1159;-69
2024/03/30 00:35:21;;;;;;;13.60;12.17;;;;;;;;;;474415;28;1086;-69
2024/03/30 00:35:36;;;;;;;13.45;12.05;;;;;;;;;;474085;28;1077;-70
2024/03/30 00:35:55;;;;;;;13.80;12.37;;;;;;;;;;474734;28;1378;-69
2024/03/30 00:36:10;;;;;;;14.02;12.63;;;;;;;;;;474617;28;1561;-69
2024/03/30 00:36:25;;;;;;;13.73;12.23;;;;;;;;;;475202;28;1181;-69
2024/03/30 00:36:41;;;;;;;14.43;12.57;;;;;;;;;;477561;28;1252;-69
2024/03/30 00:36:56;;;;;;;13.57;11.97;;;;;;;;;;475073;28;1086;-70
2024/03/30 00:37:12;;;;;;;12.70;11.40;;;;;;;;;;476595;28;1234;-69
2024/03/30 00:37:28;;;;;;;13.50;12.20;;;;;;;;;;477843;28;1033;-69
2024/03/30 00:37:43;;;;;;;12.63;11.43;;;;;;;;;;475722;28;1294;-69
2024/03/30 00:37:58;;;;;;;12.33;11.13;;;;;;;;;;473819;28;1036;-69
2024/03/30 00:38:14;;;;;;;13.10;11.80;;;;;;;;;;474114;28;1223;-69
2024/03/30 00:38:29;;;;;;;13.30;11.90;;;;;;;;;;473680;28;874;-69
2024/03/30 00:38:45;;;;;;;13.40;12.00;;;;;;;;;;474073;28;1154;-69
2024/03/30 00:39:00;;;;;;;13.80;12.40;;;;;;;;;;474635;28;1350;-69
2024/03/30 00:39:16;;;;;;;13.73;12.33;;;;;;;;;;474248;28;1128;-70
2024/03/30 00:39:31;;;;;;;13.43;12.03;;;;;;;;;;477156;28;1225;-69
2024/03/30 00:39:47;;;;;;;13.57;12.25;;;;;;;;;;477244;28;925;-69
2024/03/30 00:40:02;;;;;;;14.10;12.53;;;;;;;;;;474457;28;1200;-69
2024/03/30 00:40:18;;;;;;;13.93;12.38;;;;;;;;;;474584;28;898;-69
2024/03/30 00:40:36;;;;;;;13.63;12.30;;;;;;;;;;476594;28;1240;-69
2024/03/30 00:40:51;;;;;;;13.77;12.43;;;;;;;;;;477573;28;1004;-69
2024/03/30 00:41:07;;;;;;;13.37;12.03;;;;;;;;;;476010;28;899;-71
2024/03/30 00:41:22;;;;;;;13.57;12.17;;;;;;;;;;478101;28;1186;-69
2024/03/30 00:41:39;;;;;;;14.00;12.47;;;;;;;;;;478294;28;1199;-69
2024/03/30 00:41:54;;;;;;;14.02;12.52;;;;;;;;;;477657;28;1147;-69
2024/03/30 00:42:09;;;;;;;13.70;12.17;;;;;;;;;;478500;28;1221;-69
2024/03/30 00:42:26;;;;;;;14.38;12.13;;;;;;;;;;479864;28;1460;-69
2024/03/30 00:42:41;;;;;;;13.57;12.07;;;;;;;;;;479261;28;1513;-70
2024/03/30 00:42:56;;;;;;;13.33;12.00;;;;;;;;;;477197;28;1145;-69
2024/03/30 00:43:12;;;;;;;13.55;12.15;;;;;;;;;;477859;28;981;-69
2024/03/30 00:43:27;;;;;;;13.63;12.20;;;;;;;;;;475357;28;1010;-70
2024/03/30 00:43:44;;;;;;;13.40;12.03;;;;;;;;;;476413;28;991;-71
2024/03/30 00:44:00;;;;;;;12.73;11.43;;;;;;;;;;474633;28;1067;-69
2024/03/30 00:44:15;;;;;;;12.32;11.13;;;;;;;;;;475874;28;1050;-69
2024/03/30 00:44:32;;;;;;;12.60;11.40;;;;;;;;;;473752;28;1146;-69
2024/03/30 00:44:47;;;;;;;13.13;11.75;;;;;;;;;;473033;28;1114;-69
2024/03/30 00:45:03;;;;;;;12.45;11.23;;;;;;;;;;472837;28;1452;-69
2024/03/30 00:45:18;;;;;;;11.87;10.77;;;;;;;;;;474009;28;1261;-69
2024/03/30 00:45:38;;;;;;;12.15;10.95;;;;;;;;;;475648;28;1150;-69
2024/03/30 00:45:53;;;;;;;11.52;10.32;;;;;;;;;;475722;28;1126;-69
2024/03/30 00:46:09;;;;;;;11.50;10.40;;;;;;;;;;477729;28;877;-69
2024/03/30 00:46:24;;;;;;;12.57;11.25;;;;;;;;;;475792;28;1254;-69
2024/03/30 00:46:40;;;;;;;13.60;12.07;;;;;;;;;;474398;28;1291;-69
2024/03/30 00:46:55;;;;;;;14.20;12.70;;;;;;;;;;476505;28;1376;-69
2024/03/30 00:47:10;;;;;;;14.48;12.98;;;;;;;;;;476194;28;1264;-69
2024/03/30 00:47:26;;;;;;;14.80;13.30;;;;;;;;;;475399;28;963;-69
2024/03/30 00:47:41;;;;;;;14.53;13.03;;;;;;;;;;474834;28;906;-70
2024/03/30 00:47:56;;;;;;;13.70;12.30;;;;;;;;;;475077;28;904;-69
2024/03/30 00:48:12;;;;;;;14.00;12.60;;;;;;;;;;473248;28;1182;-69
2024/03/30 00:48:28;;;;;;;14.75;13.18;;;;;;;;;;474917;28;1172;-70
2024/03/30 00:48:43;;;;;;;14.90;13.30;;;;;;;;;;476388;28;1025;-69
2024/03/30 00:48:59;;;;;;;14.40;12.90;;;;;;;;;;476222;28;1187;-69
2024/03/30 00:49:14;;;;;;;13.88;12.48;;;;;;;;;;476679;28;936;-69
2024/03/30 00:49:29;;;;;;;14.55;13.05;;;;;;;;;;474786;28;1178;-69
2024/03/30 00:49:45;;;;;;;14.90;13.30;;;;;;;;;;473750;28;2163;-69
2024/03/30 00:50:00;;;;;;;14.37;12.93;;;;;;;;;;473854;28;1190;-72
2024/03/30 00:50:16;;;;;;;14.50;13.00;;;;;;;;;;475600;28;945;-69
2024/03/30 00:50:31;;;;;;;13.90;12.50;;;;;;;;;;475784;28;1278;-70
2024/03/30 00:50:47;;;;;;;12.73;11.52;;;;;;;;;;472738;28;1092;-69
2024/03/30 00:51:02;;;;;;;12.67;11.37;;;;;;;;;;475364;28;924;-69
2024/03/30 00:51:17;;;;;;;11.93;10.73;;;;;;;;;;473671;28;1061;-70
2024/03/30 00:51:32;;;;;;;11.65;10.50;;;;;;;;;;475853;28;1053;-72
2024/03/30 00:51:48;;;;;;;12.83;11.53;;;;;;;;;;473856;28;1296;-69
2024/03/30 00:52:04;;;;;;;13.37;12.03;;;;;;;;;;475983;28;893;-70
2024/03/30 00:52:19;;;;;;;13.10;11.80;;;;;;;;;;475398;28;1001;-69
2024/03/30 00:52:34;;;;;;;14.03;12.57;;;;;;;;;;475948;28;1151;-69
2024/03/30 00:52:50;;;;;;;13.90;12.45;;;;;;;;;;477595;28;1063;-69
2024/03/30 00:53:05;;;;;;;12.20;11.00;;;;;;;;;;477292;28;1184;-69
2024/03/30 00:53:21;;;;;;;11.82;10.63;;;;;;;;;;476549;28;911;-69
2024/03/30 00:53:36;;;;;;;12.40;11.20;;;;;;;;;;477596;28;1074;-70
2024/03/30 00:53:51;;;;;;;12.43;11.23;;;;;;;;;;475680;28;1107;-71
2024/03/30 00:54:07;;;;;;;12.35;11.15;;;;;;;;;;473833;28;1168;-69
2024/03/30 00:54:22;;;;;;;12.73;11.43;;;;;;;;;;474096;28;914;-69
2024/03/30 00:54:37;;;;;;;12.43;11.23;;;;;;;;;;474668;28;1200;-71
2024/03/30 00:54:52;;;;;;;12.55;11.35;;;;;;;;;;473802;28;1113;-69
2024/03/30 00:55:08;;;;;;;13.47;12.17;;;;;;;;;;474570;28;995;-70
2024/03/30 00:55:23;;;;;;;14.00;12.70;;;;;;;;;;474423;28;882;-69
2024/03/30 00:55:38;;;;;;;14.95;13.45;;;;;;;;;;474207;28;1227;-69
2024/03/30 00:55:59;;;;;;;15.13;13.63;;;;;;;;;;475152;28;1117;-70
2024/03/30 00:56:14;;;;;;;15.07;13.60;;;;;;;;;;474941;28;1324;-70
2024/03/30 00:56:30;;;;;;;15.50;13.90;;;;;;;;;;476324;28;990;-69
2024/03/30 00:56:45;;;;;;;15.60;14.00;;;;;;;;;;476184;28;1398;-69
2024/03/30 00:57:01;;;;;;;15.90;14.30;;;;;;;;;;476299;28;880;-69
2024/03/30 00:57:16;;;;;;;16.20;14.50;;;;;;;;;;476857;28;1110;-69
2024/03/30 00:57:31;;;;;;;16.00;14.30;;;;;;;;;;475434;28;1309;-69
2024/03/30 00:57:46;;;;;;;16.02;14.43;;;;;;;;;;474759;28;918;-70
2024/03/30 00:58:02;;;;;;;16.63;14.93;;;;;;;;;;474292;28;1014;-69
2024/03/30 00:58:17;;;;;;;16.63;14.93;;;;;;;;;;476118;28;1141;-69
2024/03/30 00:58:33;;;;;;;16.50;14.83;;;;;;;;;;473835;28;1219;-70
2024/03/30 00:58:48;;;;;;;15.77;14.17;;;;;;;;;;473778;28;1462;-70
2024/03/30 00:59:05;;;;;;;15.93;14.27;;;;;;;;;;474389;28;1314;-69
2024/03/30 00:59:21;;;;;;;16.77;14.98;;;;;;;;;;474719;28;996;-69
2024/03/30 00:59:38;;;;;;;16.48;14.70;;;;;;;;;;475961;28;953;-69
2024/03/30 00:59:53;;;;;;;16.63;14.48;;;;;;;;;;477253;28;984;-69
2024/03/30 01:00:15;;;;;;;16.13;14.37;;;;;;;;;;476592;28;1252;-69
2024/03/30 01:00:31;;;;;;;16.13;14.45;;;;;;;;;;476470;28;1733;-69
2024/03/30 01:00:46;;;;;;;15.93;14.23;;;;;;;;;;476232;28;1068;-69
2024/03/30 01:01:02;;;;;;;15.50;13.90;;;;;;;;;;477886;28;1198;-69
2024/03/30 01:01:18;;;;;;;15.65;14.02;;;;;;;;;;477716;28;1193;-69
2024/03/30 01:01:33;;;;;;;16.43;14.60;;;;;;;;;;478374;28;1241;-69
2024/03/30 01:01:49;;;;;;;16.40;14.65;;;;;;;;;;476252;28;1298;-70
2024/03/30 01:02:04;;;;;;;15.93;14.23;;;;;;;;;;476792;28;1218;-69
2024/03/30 01:02:19;;;;;;;15.90;13.87;;;;;;;;;;477361;28;934;-69
2024/03/30 01:02:34;;;;;;;16.27;13.82;;;;;;;;;;477408;28;1325;-69
2024/03/30 01:02:50;;;;;;;16.93;14.23;;;;;;;;;;477480;28;890;-70
2024/03/30 01:03:05;;;;;;;16.30;14.27;;;;;;;;;;475505;28;1195;-69
2024/03/30 01:03:20;;;;;;;16.37;14.30;;;;;;;;;;475440;28;1342;-69
2024/03/30 01:03:36;;;;;;;15.95;14.13;;;;;;;;;;476869;28;921;-70
2024/03/30 01:03:51;;;;;;;16.00;13.40;;;;;;;;;;474772;28;1171;-71
2024/03/30 01:04:06;;;;;;;15.90;12.97;;;;;;;;;;474039;28;1156;-69
2024/03/30 01:04:21;;;;;;;14.43;12.93;;;;;;;;;;474688;28;1206;-69
2024/03/30 01:04:37;;;;;;;13.30;12.00;;;;;;;;;;473979;28;1228;-69
2024/03/30 01:04:52;;;;;;;12.40;11.20;;;;;;;;;;474245;28;909;-69
2024/03/30 01:05:08;;;;;;;13.48;12.15;;;;;;;;;;471663;28;1211;-71
2024/03/30 01:05:23;;;;;;;13.73;12.32;;;;;;;;;;475133;28;1572;-69
2024/03/30 01:05:39;;;;;;;12.63;11.37;;;;;;;;;;476574;28;1219;-69
2024/03/30 01:05:54;;;;;;;12.40;11.20;;;;;;;;;;474553;28;1180;-70
2024/03/30 01:06:19;;;;;;;13.23;11.93;;;;;;;;;;474903;28;1190;-71
2024/03/30 01:06:35;;;;;;;13.88;12.45;;;;;;;;;;476098;28;1350;-70
2024/03/30 01:06:50;;;;;;;14.30;12.80;;;;;;;;;;476157;28;961;-71
2024/03/30 01:07:05;;;;;;;14.13;12.63;;;;;;;;;;475211;28;980;-69
2024/03/30 01:07:21;;;;;;;13.90;12.50;;;;;;;;;;474411;28;1117;-69
2024/03/30 01:07:37;;;;;;;14.23;12.73;;;;;;;;;;474325;28;1517;-69
2024/03/30 01:07:52;;;;;;;14.82;13.30;;;;;;;;;;473229;28;1166;-71
2024/03/30 01:08:08;;;;;;;15.30;13.70;;;;;;;;;;474153;28;1240;-69
2024/03/30 01:08:23;;;;;;;16.50;14.03;;;;;;;;;;472441;28;1133;-69
2024/03/30 01:08:38;;;;;;;17.08;14.52;;;;;;;;;;473842;28;1222;-69
2024/03/30 01:08:54;;;;;;;16.93;14.73;;;;;;;;;;474063;28;1215;-70
2024/03/30 01:09:09;;;;;;;16.53;14.77;;;;;;;;;;474509;28;917;-69
2024/03/30 01:09:27;;;;;;;16.63;14.88;;;;;;;;;;476339;28;921;-69
2024/03/30 01:09:43;;;;;;;15.90;14.20;;;;;;;;;;476365;28;1052;-69
2024/03/30 01:09:58;;;;;;;15.17;13.67;;;;;;;;;;478706;28;1133;-69
2024/03/30 01:10:14;;;;;;;14.70;13.20;;;;;;;;;;479144;28;865;-69
2024/03/30 01:10:29;;;;;;;13.53;12.13;;;;;;;;;;477229;28;1159;-69
2024/03/30 01:10:45;;;;;;;13.90;12.43;;;;;;;;;;475079;28;1251;-70
2024/03/30 01:11:00;;;;;;;14.60;12.90;;;;;;;;;;474598;28;1179;-69
2024/03/30 01:11:16;;;;;;;15.07;13.45;;;;;;;;;;475042;28;1290;-69
2024/03/30 01:11:31;;;;;;;16.93;14.17;;;;;;;;;;473172;28;1087;-69
2024/03/30 01:11:47;;;;;;;17.30;14.73;;;;;;;;;;470890;28;1195;-69
2024/03/30 01:12:03;;;;;;;17.13;15.20;;;;;;;;;;473629;28;1235;-69
2024/03/30 01:12:19;;;;;;;16.88;15.00;;;;;;;;;;472863;28;1086;-69
2024/03/30 01:12:34;;;;;;;16.67;14.83;;;;;;;;;;473650;28;969;-69
2024/03/30 01:12:50;;;;;;;16.73;14.82;;;;;;;;;;472942;28;1095;-69
2024/03/30 01:13:05;;;;;;;17.00;15.20;;;;;;;;;;472508;28;918;-69
2024/03/30 01:13:21;;;;;;;16.80;15.02;;;;;;;;;;472990;28;1286;-70
2024/03/30 01:13:36;;;;;;;16.43;14.73;;;;;;;;;;472707;28;1095;-69
2024/03/30 01:13:52;;;;;;;16.80;15.07;;;;;;;;;;474480;28;1177;-70
2024/03/30 01:14:07;;;;;;;17.07;15.27;;;;;;;;;;473808;28;1167;-70
2024/03/30 01:14:24;;;;;;;17.70;15.65;;;;;;;;;;474676;28;1201;-69
2024/03/30 01:14:40;;;;;;;17.23;15.40;;;;;;;;;;474409;28;1199;-69
2024/03/30 01:14:55;;;;;;;16.83;15.03;;;;;;;;;;471984;28;1552;-70
2024/03/30 01:15:11;;;;;;;17.27;14.95;;;;;;;;;;472286;28;1096;-69
2024/03/30 01:15:27;;;;;;;16.20;14.45;;;;;;;;;;473412;28;1341;-71
2024/03/30 01:15:42;;;;;;;16.47;14.77;;;;;;;;;;470844;28;1173;-69
2024/03/30 01:15:58;;;;;;;16.65;14.95;;;;;;;;;;472806;28;917;-69
2024/03/30 01:16:13;;;;;;;16.77;14.87;;;;;;;;;;473026;28;878;-69
2024/03/30 01:16:29;;;;;;;17.25;14.88;;;;;;;;;;473392;28;1310;-70
2024/03/30 01:16:45;;;;;;;17.08;15.10;;;;;;;;;;472430;28;1098;-70
2024/03/30 01:17:00;;;;;;;17.00;15.20;;;;;;;;;;473005;28;1159;-69
2024/03/30 01:17:17;;;;;;;17.57;15.63;;;;;;;;;;475031;28;1286;-70
2024/03/30 01:17:34;;;;;;;17.80;15.60;;;;;;;;;;474724;28;1093;-69
2024/03/30 01:17:49;;;;;;;17.08;15.07;;;;;;;;;;473779;28;957;-69
2024/03/30 01:18:05;;;;;;;16.92;14.73;;;;;;;;;;472785;28;1088;-69
2024/03/30 01:18:21;;;;;;;17.02;14.90;;;;;;;;;;475403;28;1191;-69
2024/03/30 01:18:38;;;;;;;17.30;15.13;;;;;;;;;;474151;28;1035;-69
2024/03/30 01:18:53;;;;;;;18.23;15.25;;;;;;;;;;472031;28;1366;-70
2024/03/30 01:19:09;;;;;;;16.98;14.95;;;;;;;;;;474969;28;1111;-69
2024/03/30 01:19:24;;;;;;;16.23;14.53;;;;;;;;;;473890;28;1078;-69
2024/03/30 01:19:40;;;;;;;16.73;14.52;;;;;;;;;;474333;28;1159;-69
2024/03/30 01:19:56;;;;;;;16.60;14.38;;;;;;;;;;474488;28;850;-69
2024/03/30 01:20:11;;;;;;;17.17;14.63;;;;;;;;;;473986;28;1038;-69
2024/03/30 01:20:27;;;;;;;17.63;15.00;;;;;;;;;;474868;28;889;-70
2024/03/30 01:20:43;;;;;;;16.70;14.90;;;;;;;;;;475673;28;1032;-69
2024/03/30 01:20:58;;;;;;;16.67;14.90;;;;;;;;;;478115;28;1091;-70
2024/03/30 01:21:14;;;;;;;16.30;14.60;;;;;;;;;;477888;28;945;-69
2024/03/30 01:21:29;;;;;;;16.13;14.43;;;;;;;;;;475428;28;1158;-69
2024/03/30 01:21:45;;;;;;;15.97;14.27;;;;;;;;;;477130;28;1337;-69
2024/03/30 01:22:01;;;;;;;15.77;14.18;;;;;;;;;;476770;28;874;-69
2024/03/30 01:22:16;;;;;;;15.97;14.30;;;;;;;;;;475631;28;1107;-70
2024/03/30 01:22:35;;;;;;;16.65;14.27;;;;;;;;;;475719;28;1293;-69
2024/03/30 01:22:51;;;;;;;17.13;14.93;;;;;;;;;;475872;28;966;-69
2024/03/30 01:23:07;;;;;;;16.60;14.80;;;;;;;;;;476181;28;985;-69
2024/03/30 01:23:22;;;;;;;16.53;14.37;;;;;;;;;;477195;28;873;-70
2024/03/30 01:23:38;;;;;;;16.50;14.05;;;;;;;;;;477366;28;1310;-69
2024/03/30 01:23:54;;;;;;;15.30;13.70;;;;;;;;;;475518;28;1275;-70
2024/03/30 01:24:10;;;;;;;15.65;14.02;;;;;;;;;;475861;28;948;-69
2024/03/30 01:24:25;;;;;;;15.67;14.07;;;;;;;;;;473747;28;1098;-69
2024/03/30 01:24:41;;;;;;;15.52;13.90;;;;;;;;;;474171;28;866;-69
2024/03/30 01:24:57;;;;;;;15.77;13.82;;;;;;;;;;473961;28;1173;-70
2024/03/30 01:25:13;;;;;;;15.73;14.00;;;;;;;;;;475131;28;1274;-69
2024/03/30 01:25:29;;;;;;;16.33;14.13;;;;;;;;;;474974;28;1267;-69
2024/03/30 01:25:44;;;;;;;16.05;14.13;;;;;;;;;;477032;28;1179;-69
2024/03/30 01:26:00;;;;;;;15.40;13.80;;;;;;;;;;478408;28;1060;-69
2024/03/30 01:26:18;;;;;;;15.50;13.50;;;;;;;;;;478596;27;1965;-70
2024/03/30 01:26:40;;;;;;;16.75;14.25;;;;;;;;;;479374;27;1075;-69
2024/03/30 01:26:57;;;;;;;17.20;15.30;;;;;;;;;;478764;27;881;-69
2024/03/30 01:27:18;;;;;;;17.52;15.25;;;;;;;;;;477950;28;911;-69
2024/03/30 01:27:33;;;;;;;17.23;13.93;;;;;;;;;;476952;28;1326;-70
2024/03/30 01:27:50;;;;;;;15.18;13.07;;;;;;;;;;474571;28;1079;-69
2024/03/30 01:28:07;;;;;;;14.38;12.88;;;;;;;;;;473674;28;1127;-69
2024/03/30 01:28:24;;;;;;;14.70;13.05;;;;;;;;;;474909;28;1425;-69
2024/03/30 01:28:42;;;;;;;15.95;14.00;;;;;;;;;;474594;28;1184;-69
2024/03/30 01:29:02;;;;;;;16.75;14.55;;;;;;;;;;471831;28;1500;-69
2024/03/30 01:29:23;;;;;;;16.40;14.25;;;;;;;;;;472808;28;1047;-69
2024/03/30 01:29:39;;;;;;;16.13;14.00;;;;;;;;;;475317;28;1574;-69
2024/03/30 01:30:05;;;;;;;16.20;13.97;;;;;;;;;;476847;28;1477;-71
2024/03/30 01:30:21;;;;;;;16.60;14.68;;;;;;;;;;476899;28;1861;-69
2024/03/30 01:30:37;;;;;;;16.48;14.52;;;;;;;;;;476534;28;1124;-69
2024/03/30 01:30:53;;;;;;;15.18;13.57;;;;;;;;;;477030;28;1080;-70
2024/03/30 01:31:10;;;;;;;14.87;13.30;;;;;;;;;;477828;27;926;-70
2024/03/30 01:31:26;;;;;;;16.90;14.30;;;;;;;;;;479855;27;1027;-69
2024/03/30 01:31:42;;;;;;;16.90;14.18;;;;;;;;;;478978;28;1335;-70
2024/03/30 01:31:57;;;;;;;15.90;14.20;;;;;;;;;;480008;28;864;-72
2024/03/30 01:32:13;;;;;;;15.95;14.25;;;;;;;;;;479284;28;1271;-69
2024/03/30 01:32:29;;;;;;;15.98;14.27;;;;;;;;;;478964;28;950;-70
2024/03/30 01:32:44;;;;;;;15.67;13.83;;;;;;;;;;477665;28;1112;-70
2024/03/30 01:33:00;;;;;;;15.98;14.05;;;;;;;;;;474774;28;1047;-69
2024/03/30 01:33:16;;;;;;;15.93;14.23;;;;;;;;;;473219;28;1318;-69
2024/03/30 01:33:32;;;;;;;15.45;13.85;;;;;;;;;;473717;28;1152;-69
2024/03/30 01:33:47;;;;;;;15.97;14.27;;;;;;;;;;474382;28;1148;-69
2024/03/30 01:34:03;;;;;;;16.27;14.57;;;;;;;;;;473989;28;965;-69
2024/03/30 01:34:18;;;;;;;16.05;14.35;;;;;;;;;;474583;28;1274;-69
2024/03/30 01:34:34;;;;;;;18.17;14.60;;;;;;;;;;474419;28;1148;-69
2024/03/30 01:34:50;;;;;;;17.90;14.32;;;;;;;;;;475409;28;1352;-69
2024/03/30 01:35:06;;;;;;;16.97;14.60;;;;;;;;;;474183;28;1110;-69
2024/03/30 01:35:21;;;;;;;17.65;15.10;;;;;;;;;;474518;28;910;-70
2024/03/30 01:35:36;;;;;;;18.10;15.05;;;;;;;;;;475124;28;985;-69